Time;durP1;ratioP1;P1;durP2;ratioP2;P2;SDS_P1;SDS_P2;PMS_P1;PMS_P2;Temp;Humidity;BMP_temperature;BMP_pressure;BME280_temperature;BME280_humidity;BME280_pressure;Samples;Min_cycle;Max_cycle;Signal;HPM_P1;HPM_P2
2022/06/23 00:03:04;;;;;;;5.90;4.20;;;;;;;13.24;62.61;99960.67;130076;1271;108817;-77
2022/06/23 00:06:22;;;;;;;6.00;4.40;;;;;;;13.20;62.60;99958.66;130193;1271;108736;-78
2022/06/23 00:09:40;;;;;;;8.00;4.40;;;;;;;13.15;62.68;99957.76;130221;1271;108647;-78
2022/06/23 00:12:46;;;;;;;5.70;4.40;;;;;;;13.11;62.88;99962.67;130042;1270;108737;-76
2022/06/23 00:15:54;;;;;;;5.80;4.20;;;;;;;13.07;62.88;99960.79;130109;1270;107686;-75
2022/06/23 00:18:59;;;;;;;6.80;4.30;;;;;;;13.02;62.83;99965.29;130183;1271;108727;-78
2022/06/23 00:22:04;;;;;;;6.50;4.60;;;;;;;12.97;62.83;99964.46;130183;1271;108804;-76
2022/06/23 00:25:43;;;;;;;7.60;4.60;;;;;;;12.92;63.01;99965.39;130193;1271;108868;-82
2022/06/23 00:28:51;;;;;;;5.60;4.10;;;;;;;12.85;63.16;99967.66;130432;1271;108983;-79
2022/06/23 00:31:59;;;;;;;5.00;3.60;;;;;;;12.80;63.14;99970.10;130159;1271;108655;-80
2022/06/23 00:35:07;;;;;;;5.60;3.50;;;;;;;12.80;63.09;99970.00;130291;1271;107663;-80
2022/06/23 00:38:21;;;;;;;5.00;4.10;;;;;;;12.79;63.14;99966.73;130273;1271;108806;-80
2022/06/23 00:41:32;;;;;;;5.30;4.10;;;;;;;12.77;63.26;99968.30;130050;1271;108955;-82
2022/06/23 00:44:45;;;;;;;6.20;4.40;;;;;;;12.77;63.29;99969.91;130041;1271;108823;-81
2022/06/23 00:47:50;;;;;;;;;;;;;;;12.75;63.25;99971.27;130067;1271;108728;-82
2022/06/23 00:51:03;;;;;;;7.10;4.30;;;;;;;12.74;63.31;99974.27;130063;1271;108832;-82
2022/06/23 00:54:17;;;;;;;7.30;4.40;;;;;;;12.70;63.34;99972.39;130085;1271;108675;-82
2022/06/23 00:57:28;;;;;;;5.40;4.50;;;;;;;12.65;63.44;99974.81;130040;1271;107706;-80
2022/06/23 01:00:39;;;;;;;6.40;4.50;;;;;;;12.60;63.52;99976.17;130040;1271;108936;-81
2022/06/23 01:03:54;;;;;;;5.20;4.00;;;;;;;12.55;63.38;99977.47;130033;1270;108701;-80
2022/06/23 01:07:03;;;;;;;5.90;4.00;;;;;;;12.49;63.66;99977.89;130030;1271;108895;-81
2022/06/23 01:10:20;;;;;;;5.50;3.90;;;;;;;12.45;63.56;99977.50;130018;1271;108771;-80
2022/06/23 01:13:30;;;;;;;5.20;4.60;;;;;;;12.41;63.48;99979.91;130026;1271;107720;-80
2022/06/23 01:16:44;;;;;;;5.30;4.40;;;;;;;12.36;63.52;99979.59;130038;1271;108723;-79
2022/06/23 01:20:06;;;;;;;5.80;4.10;;;;;;;12.32;63.50;99980.00;129969;1271;108684;-80
2022/06/23 01:23:35;;;;;;;5.60;3.80;;;;;;;12.27;63.56;99974.30;130004;1271;108652;-79
2022/06/23 01:26:57;;;;;;;5.80;4.00;;;;;;;12.21;63.92;99975.15;130243;1271;108923;-80
2022/06/23 01:30:09;;;;;;;5.80;3.90;;;;;;;12.16;63.70;99974.06;130082;1271;108965;-80
2022/06/23 01:33:22;;;;;;;4.80;4.00;;;;;;;12.16;63.89;99974.60;130031;1271;108139;-79
2022/06/23 01:36:33;;;;;;;6.50;4.10;;;;;;;12.20;63.95;99973.48;130133;1271;108675;-78
2022/06/23 01:39:47;;;;;;;4.70;4.10;;;;;;;12.22;63.77;99972.38;130184;1271;108756;-79
2022/06/23 01:42:58;;;;;;;6.70;4.30;;;;;;;12.21;63.83;99977.16;129908;1271;108822;-78
2022/06/23 01:46:11;;;;;;;4.60;3.90;;;;;;;12.17;63.85;99978.20;130136;1271;108812;-81
2022/06/23 01:49:19;;;;;;;5.70;4.70;;;;;;;12.13;64.04;99982.09;130193;1271;109095;-81
2022/06/23 01:52:24;;;;;;;6.20;4.50;;;;;;;12.10;64.04;99986.14;130234;1271;108809;-79
2022/06/23 01:55:48;;;;;;;5.20;4.30;;;;;;;12.08;63.95;99994.10;129996;1271;106699;-78
2022/06/23 01:59:05;;;;;;;4.70;4.00;;;;;;;12.06;64.15;100001.83;129938;1271;108675;-78
2022/06/23 02:02:25;;;;;;;5.80;4.40;;;;;;;12.04;64.28;100002.33;130214;1271;108880;-74
2022/06/23 02:05:41;;;;;;;7.20;4.20;;;;;;;11.99;64.22;99996.63;130166;1270;109053;-74
2022/06/23 02:08:52;;;;;;;6.40;4.30;;;;;;;11.93;64.22;99999.79;130071;1271;108673;-71
2022/06/23 02:11:57;;;;;;;7.20;4.00;;;;;;;11.89;64.18;99999.55;129974;1269;108857;-72
2022/06/23 02:15:11;;;;;;;4.90;3.50;;;;;;;11.87;64.44;99999.36;129958;1271;108943;-72
2022/06/23 02:18:23;;;;;;;5.90;4.00;;;;;;;11.90;64.45;100001.21;130135;1271;108773;-71
2022/06/23 02:21:35;;;;;;;4.90;3.90;;;;;;;11.95;64.57;99999.35;130099;1271;108631;-71
2022/06/23 02:24:49;;;;;;;6.30;4.50;;;;;;;11.99;64.27;100003.27;129997;1271;109249;-71
2022/06/23 02:28:00;;;;;;;4.40;3.80;;;;;;;11.98;64.35;100004.40;130023;1271;108741;-73
2022/06/23 02:31:15;;;;;;;5.00;4.00;;;;;;;11.99;64.59;100011.83;130157;1271;108678;-73
2022/06/23 02:34:26;;;;;;;5.80;4.40;;;;;;;11.97;64.60;100013.99;129965;1271;108837;-72
2022/06/23 02:37:53;;;;;;;5.70;4.30;;;;;;;11.96;64.32;100019.77;129980;1271;108834;-75
2022/06/23 02:41:08;;;;;;;4.80;4.20;;;;;;;11.95;64.57;100020.45;129941;1270;108778;-75
2022/06/23 02:44:33;;;;;;;6.30;4.80;;;;;;;11.97;64.68;100026.62;130011;1271;108790;-79
2022/06/23 02:47:54;;;;;;;5.20;4.30;;;;;;;11.97;64.47;100026.45;130378;1270;108775;-80
2022/06/23 02:51:14;;;;;;;5.50;4.60;;;;;;;11.97;64.75;100031.64;130176;1271;108850;-78
2022/06/23 02:54:39;;;;;;;6.90;4.60;;;;;;;11.97;64.67;100032.71;130006;1271;108801;-76
2022/06/23 02:57:49;;;;;;;5.40;4.40;;;;;;;11.97;64.81;100033.05;130091;1271;108883;-75
2022/06/23 03:01:00;;;;;;;5.60;4.10;;;;;;;11.97;64.80;100033.72;130146;1270;108747;-83
2022/06/23 03:04:17;;;;;;;4.70;3.80;;;;;;;11.99;64.91;100036.73;130096;1271;107763;-81
2022/06/23 03:07:29;;;;;;;6.20;4.20;;;;;;;12.04;64.87;100032.30;130201;1271;107714;-81
2022/06/23 03:10:41;;;;;;;5.00;4.00;;;;;;;12.07;64.77;100036.42;130072;1271;108673;-83
2022/06/23 03:13:53;;;;;;;5.00;4.30;;;;;;;12.12;64.71;100043.40;130094;1271;108698;-85
2022/06/23 03:17:04;;;;;;;8.10;4.50;;;;;;;12.18;64.69;100042.00;130096;1270;108667;-85
2022/06/23 03:20:14;;;;;;;4.40;3.90;;;;;;;12.32;64.84;100039.27;130082;1271;108723;-84
2022/06/23 03:23:28;;;;;;;6.20;4.30;;;;;;;12.57;64.91;100041.96;130025;1271;108648;-85
2022/06/23 03:26:40;;;;;;;5.80;4.40;;;;;;;12.88;64.83;100043.70;130101;1271;108950;-84
2022/06/23 03:29:50;;;;;;;4.80;4.30;;;;;;;13.25;64.69;100047.94;130131;1271;107631;-84
2022/06/23 03:33:02;;;;;;;4.50;4.00;;;;;;;13.59;64.52;100047.71;130078;1271;108832;-84
2022/06/23 03:36:13;;;;;;;;;;;;;;;13.95;64.57;100054.99;130167;1270;108478;-85
2022/06/23 03:42:56;;;;;;;4.20;3.40;;;;;;;14.77;64.39;100060.17;130076;1271;108669;-85
2022/06/23 03:46:14;;;;;;;4.60;3.90;;;;;;;15.18;64.02;100057.03;130155;1270;109132;-85
2022/06/23 03:49:27;;;;;;;7.10;5.80;;;;;;;15.60;63.88;100052.92;130108;1271;108888;-85
2022/06/23 03:52:38;;;;;;;5.20;4.50;;;;;;;15.99;63.54;100054.77;130197;1270;108716;-85
2022/06/23 03:55:52;;;;;;;4.30;3.80;;;;;;;16.29;63.38;100058.13;130134;1271;108572;-85
2022/06/23 03:59:03;;;;;;;4.40;3.90;;;;;;;16.56;63.36;100062.41;130309;1271;108869;-85
2022/06/23 04:02:17;;;;;;;5.00;3.80;;;;;;;16.83;63.25;100059.55;130282;1270;108806;-86
2022/06/23 04:05:27;;;;;;;4.60;3.90;;;;;;;17.06;63.24;100064.48;130263;1270;109011;-86
2022/06/23 04:08:41;;;;;;;4.60;3.70;;;;;;;17.29;63.16;100064.86;130077;1270;108669;-85
2022/06/23 04:11:56;;;;;;;4.90;3.90;;;;;;;17.54;63.09;100066.91;130019;1271;108675;-86
2022/06/23 04:15:07;;;;;;;5.00;3.30;;;;;;;17.79;63.07;100070.83;130329;1267;108794;-85
2022/06/23 04:18:17;;;;;;;4.10;3.70;;;;;;;18.03;62.93;100073.22;130406;1267;108846;-86
2022/06/23 04:21:27;;;;;;;4.70;3.70;;;;;;;18.25;62.94;100073.30;130344;1267;108812;-85
2022/06/23 04:24:35;;;;;;;5.20;3.70;;;;;;;18.43;62.85;100076.83;130291;1267;108693;-85
2022/06/23 04:27:45;;;;;;;4.90;3.80;;;;;;;18.63;63.03;100080.42;130338;1267;108703;-86
2022/06/23 04:30:52;;;;;;;4.60;4.00;;;;;;;18.85;63.07;100082.95;130309;1267;108645;-85
2022/06/23 04:33:58;;;;;;;4.20;3.70;;;;;;;19.03;62.88;100086.90;130271;1267;108989;-86
2022/06/23 04:37:04;;;;;;;4.60;3.90;;;;;;;19.23;62.91;100087.78;130341;1267;108591;-85
2022/06/23 04:40:32;;;;;;;4.70;3.90;;;;;;;19.38;62.77;100088.59;130365;1267;108120;-86
2022/06/23 04:43:41;;;;;;;4.20;3.80;;;;;;;19.39;62.99;100089.55;130361;1267;108782;-85
2022/06/23 04:46:50;;;;;;;4.50;4.10;;;;;;;19.40;62.97;100092.17;130330;1267;107636;-86
2022/06/23 04:50:01;;;;;;;6.30;4.40;;;;;;;19.45;63.29;100094.19;130349;1267;108866;-86
2022/06/23 04:53:14;;;;;;;5.00;4.50;;;;;;;19.49;63.22;100099.62;130353;1267;108678;-85
2022/06/23 04:56:34;;;;;;;4.70;4.00;;;;;;;19.44;63.35;100105.42;130357;1267;108926;-86
2022/06/23 04:59:43;;;;;;;5.30;4.30;;;;;;;19.46;63.52;100108.79;130335;1267;108652;-85
2022/06/23 05:02:54;;;;;;;5.10;4.60;;;;;;;19.60;63.50;100116.42;130299;1267;108804;-86
2022/06/23 05:06:04;;;;;;;5.40;4.50;;;;;;;19.74;63.32;100118.13;130286;1267;107768;-85
2022/06/23 05:09:19;;;;;;;6.90;4.60;;;;;;;19.90;63.21;100120.29;130325;1267;108887;-85
2022/06/23 05:12:32;;;;;;;6.20;4.90;;;;;;;20.06;63.10;100123.36;130346;1267;108689;-85
2022/06/23 05:15:43;;;;;;;5.80;4.80;;;;;;;20.22;63.04;100127.33;130294;1267;108773;-86
2022/06/23 05:18:51;;;;;;;7.10;4.60;;;;;;;20.37;62.98;100127.43;130310;1267;108743;-86
2022/06/23 05:22:00;;;;;;;5.10;4.10;;;;;;;20.53;62.66;100124.76;130297;1267;108682;-86
2022/06/23 05:25:22;;;;;;;4.80;4.00;;;;;;;20.65;62.42;100124.09;130352;1267;108794;-86
2022/06/23 05:28:32;;;;;;;5.20;4.00;;;;;;;20.79;62.56;100124.14;130375;1267;107683;-86
2022/06/23 05:31:40;;;;;;;5.90;4.40;;;;;;;20.86;62.33;100128.91;130365;1267;108937;-86
2022/06/23 05:34:52;;;;;;;5.10;4.30;;;;;;;20.94;62.22;100131.86;130319;1267;108678;-84
2022/06/23 05:38:01;;;;;;;7.10;3.90;;;;;;;21.04;61.96;100138.15;130324;1267;107636;-86
2022/06/23 05:41:18;;;;;;;5.10;3.60;;;;;;;21.17;62.16;100141.73;130354;1267;108792;-84
2022/06/23 05:44:28;;;;;;;4.30;3.30;;;;;;;21.27;61.89;100143.45;130358;1267;107750;-87
2022/06/23 05:47:35;;;;;;;5.90;3.40;;;;;;;21.35;61.93;100147.14;130344;1267;108893;-85
2022/06/23 05:50:47;;;;;;;6.50;3.50;;;;;;;21.43;61.91;100147.11;130327;1267;107941;-84
2022/06/23 05:54:01;;;;;;;5.10;3.10;;;;;;;21.50;61.58;100144.78;130374;1267;108761;-87
2022/06/23 05:57:19;;;;;;;5.40;3.10;;;;;;;21.55;61.16;100150.04;130342;1267;108950;-86
2022/06/23 06:00:38;;;;;;;5.50;3.20;;;;;;;21.61;61.29;100154.10;130333;1267;108681;-86
2022/06/23 06:03:49;;;;;;;4.30;3.40;;;;;;;21.68;61.16;100153.75;130337;1267;108673;-85
2022/06/23 06:06:54;;;;;;;6.10;3.20;;;;;;;21.74;61.28;100159.91;130331;1267;107875;-83
2022/06/23 06:10:00;;;;;;;3.50;2.70;;;;;;;21.75;61.01;100165.04;130320;1267;108688;-87
2022/06/23 06:13:14;;;;;;;4.90;3.30;;;;;;;21.75;60.95;100168.34;130309;1267;107793;-86
2022/06/23 06:16:20;;;;;;;7.20;3.30;;;;;;;21.75;60.65;100166.73;130375;1267;108797;-86
2022/06/23 06:19:26;;;;;;;5.50;3.30;;;;;;;21.74;60.87;100167.35;130335;1267;108821;-87
2022/06/23 06:22:44;;;;;;;4.30;2.80;;;;;;;21.73;60.72;100171.62;130386;1267;108638;-87
2022/06/23 06:25:51;;;;;;;4.60;2.90;;;;;;;21.72;60.77;100180.16;130351;1267;108709;-85
2022/06/23 06:29:00;;;;;;;6.50;4.10;;;;;;;21.72;60.83;100189.92;130413;1267;108510;-89
2022/06/23 06:32:19;;;;;;;7.00;2.80;;;;;;;21.71;60.51;100188.48;130380;1267;108745;-86
2022/06/23 06:35:35;;;;;;;5.70;2.80;;;;;;;21.68;60.46;100191.95;130305;1267;108854;-88
2022/06/23 06:38:40;;;;;;;3.40;2.00;;;;;;;21.67;60.28;100197.68;130339;1267;108314;-89
2022/06/23 06:41:51;;;;;;;3.10;2.10;;;;;;;21.64;59.30;100195.63;130338;1267;108813;-87
2022/06/23 06:45:00;;;;;;;3.00;2.50;;;;;;;21.62;59.73;100198.67;130362;1267;108885;-90
2022/06/23 06:48:13;;;;;;;2.90;2.20;;;;;;;21.64;59.74;100197.20;130327;1267;108803;-88
2022/06/23 06:51:23;;;;;;;3.40;2.10;;;;;;;21.64;59.31;100202.30;130293;1267;109078;-86
2022/06/23 06:54:39;;;;;;;3.20;2.30;;;;;;;21.65;59.18;100198.92;130284;1267;107821;-86
2022/06/23 06:57:52;;;;;;;3.90;2.50;;;;;;;21.65;58.55;100199.45;130321;1267;108639;-87
2022/06/23 07:01:04;;;;;;;4.20;2.70;;;;;;;21.59;58.56;100199.77;130294;1267;108754;-86
2022/06/23 07:04:17;;;;;;;3.20;2.40;;;;;;;21.53;58.36;100200.48;130332;1267;108658;-88
2022/06/23 07:07:28;;;;;;;3.90;2.30;;;;;;;21.48;58.54;100198.32;130364;1267;108730;-86
2022/06/23 07:10:37;;;;;;;3.10;2.50;;;;;;;21.46;58.36;100198.60;130325;1267;108823;-86
2022/06/23 07:13:51;;;;;;;3.60;2.50;;;;;;;21.46;58.06;100202.65;130336;1267;108776;-87
2022/06/23 07:17:00;;;;;;;3.10;2.30;;;;;;;21.48;58.26;100207.00;130405;1267;108688;-86
2022/06/23 07:20:14;;;;;;;2.50;2.30;;;;;;;21.53;58.10;100205.02;130324;1267;108471;-88
2022/06/23 07:23:24;;;;;;;3.60;2.70;;;;;;;21.61;58.05;100212.21;130349;1267;107658;-86
2022/06/23 07:26:36;;;;;;;3.20;2.30;;;;;;;21.62;57.39;100213.53;130386;1267;108823;-89
2022/06/23 07:29:49;;;;;;;3.20;2.30;;;;;;;21.66;57.57;100210.34;130339;1267;108691;-87
2022/06/23 07:32:59;;;;;;;4.00;2.30;;;;;;;21.73;57.30;100213.53;130342;1267;108831;-88
2022/06/23 07:36:11;;;;;;;3.90;2.40;;;;;;;21.79;55.65;100217.89;130354;1267;108748;-88
2022/06/23 07:39:21;;;;;;;3.30;2.40;;;;;;;21.82;56.40;100219.56;130355;1267;108759;-89
2022/06/23 07:42:40;;;;;;;3.80;2.20;;;;;;;21.89;56.19;100218.34;130412;1267;108762;-88
2022/06/23 07:45:52;;;;;;;5.40;2.30;;;;;;;21.95;56.39;100218.01;130388;1267;108857;-88
2022/06/23 07:48:58;;;;;;;3.30;2.30;;;;;;;21.96;55.97;100216.25;130368;1266;108766;-90
2022/06/23 07:52:04;;;;;;;3.30;1.90;;;;;;;21.92;56.06;100220.89;130313;1267;108744;-89
2022/06/23 07:55:17;;;;;;;2.80;2.20;;;;;;;21.84;56.19;100226.45;130325;1267;108404;-89
2022/06/23 07:58:26;;;;;;;3.90;2.30;;;;;;;21.77;56.11;100226.36;130347;1267;108674;-89
2022/06/23 08:01:37;;;;;;;4.70;2.50;;;;;;;21.69;55.83;100230.54;130203;1270;108826;-88
2022/06/23 08:04:52;;;;;;;4.60;2.60;;;;;;;21.69;56.24;100237.60;130289;1270;108697;-89
2022/06/23 08:07:58;;;;;;;5.20;2.60;;;;;;;21.90;56.27;100230.48;130284;1269;109191;-89
2022/06/23 08:14:44;;;;;;;4.00;2.90;;;;;;;22.26;55.51;100231.38;129658;1274;109126;-89
2022/06/23 08:17:58;;;;;;;4.00;2.60;;;;;;;22.45;55.34;100230.15;130268;1270;108850;-86
2022/06/23 08:21:08;;;;;;;4.80;2.50;;;;;;;22.62;54.99;100231.84;130291;1270;108943;-90
2022/06/23 08:24:18;;;;;;;3.10;2.10;;;;;;;22.58;54.73;100234.67;130209;1270;108789;-86
2022/06/23 08:27:28;;;;;;;4.30;2.50;;;;;;;22.49;54.70;100234.02;130280;1270;108682;-88
2022/06/23 08:30:36;;;;;;;3.70;2.50;;;;;;;22.34;54.04;100231.52;130336;1270;108774;-85
2022/06/23 08:33:42;;;;;;;4.80;2.30;;;;;;;22.22;54.24;100229.15;130217;1270;108792;-86
2022/06/23 08:36:49;;;;;;;2.80;2.40;;;;;;;22.22;54.38;100230.98;130267;1270;107421;-88
2022/06/23 08:40:00;;;;;;;3.70;2.50;;;;;;;22.37;53.90;100232.55;130228;1269;108866;-88
2022/06/23 08:43:15;;;;;;;4.30;2.40;;;;;;;22.52;53.39;100234.26;130286;1270;108901;-86
2022/06/23 08:46:30;;;;;;;2.50;2.30;;;;;;;22.68;52.61;100234.21;130259;1270;108468;-88
2022/06/23 08:49:39;;;;;;;3.50;2.40;;;;;;;22.75;52.28;100233.35;130269;1270;108873;-89
2022/06/23 08:52:51;;;;;;;3.70;2.30;;;;;;;22.71;52.79;100235.55;130269;1270;108931;-88
2022/06/23 08:56:02;;;;;;;3.50;2.50;;;;;;;22.83;53.10;100240.13;130223;1270;108861;-86
2022/06/23 08:59:15;;;;;;;2.80;2.30;;;;;;;23.03;52.63;100239.98;130282;1269;108927;-87
2022/06/23 09:02:27;;;;;;;4.60;2.20;;;;;;;23.25;52.35;100237.56;130237;1270;108743;-88
2022/06/23 09:05:40;;;;;;;2.70;2.20;;;;;;;23.46;51.67;100239.30;130232;1270;108833;-87
2022/06/23 09:08:54;;;;;;;3.80;2.30;;;;;;;23.61;51.96;100239.34;130243;1270;108707;-86
2022/06/23 09:12:10;;;;;;;5.10;2.10;;;;;;;23.74;51.56;100236.55;130241;1270;108679;-89
2022/06/23 09:15:38;;;;;;;2.40;2.00;;;;;;;23.93;51.28;100238.02;130291;1270;108895;-88
2022/06/23 09:19:17;;;;;;;2.80;2.40;;;;;;;24.05;49.37;100236.93;130264;1270;108853;-89
2022/06/23 09:22:48;;;;;;;3.80;2.50;;;;;;;24.03;49.29;100236.26;130244;1270;108782;-87
2022/06/23 09:26:01;;;;;;;3.10;2.20;;;;;;;23.87;49.16;100236.59;130226;1270;108628;-88
2022/06/23 09:29:17;;;;;;;3.00;2.40;;;;;;;23.80;50.00;100237.96;130259;1270;108825;-90
2022/06/23 09:32:33;;;;;;;3.00;2.30;;;;;;;23.65;49.88;100238.23;130263;1270;108830;-90
2022/06/23 09:35:59;;;;;;;4.00;2.10;;;;;;;23.46;49.49;100239.18;130226;1269;108755;-87
2022/06/23 09:39:27;;;;;;;3.60;2.00;;;;;;;23.31;48.38;100232.38;130266;1270;108704;-89
2022/06/23 09:43:11;;;;;;;2.20;1.90;;;;;;;23.46;49.14;100232.91;130261;1270;108969;-89
2022/06/23 09:46:40;;;;;;;5.00;2.10;;;;;;;23.74;48.07;100235.96;130238;1270;108077;-87
2022/06/23 09:50:08;;;;;;;2.30;2.10;;;;;;;23.93;47.96;100237.70;130251;1270;108698;-88
2022/06/23 09:53:50;;;;;;;2.30;1.70;;;;;;;24.01;47.07;100233.27;130038;1270;297111;-88
2022/06/23 09:57:14;;;;;;;4.40;1.90;;;;;;;24.06;45.48;100232.80;130117;1270;108984;-87
2022/06/23 10:00:21;;;;;;;2.30;1.70;;;;;;;24.07;46.55;100233.12;130212;1270;108761;-88
2022/06/23 10:03:59;;;;;;;3.10;2.00;;;;;;;24.12;44.77;100231.46;130158;1269;108770;-90
2022/06/23 10:07:26;;;;;;;2.00;1.80;;;;;;;24.10;46.10;100229.73;130253;1270;108991;-88
2022/06/23 10:10:48;;;;;;;3.30;2.00;;;;;;;24.15;46.31;100226.12;130207;1269;108880;-87
2022/06/23 10:14:05;;;;;;;2.80;1.80;;;;;;;24.32;46.79;100229.83;130267;1270;108770;-86
2022/06/23 10:17:30;;;;;;;2.30;2.00;;;;;;;24.56;46.66;100225.68;130272;1269;108787;-88
2022/06/23 10:20:48;;;;;;;2.70;1.60;;;;;;;24.73;46.17;100221.02;130247;1270;108143;-86
2022/06/23 10:24:22;;;;;;;4.20;1.80;;;;;;;24.77;45.70;100221.34;130279;1269;108620;-87
2022/06/23 10:27:52;;;;;;;2.10;1.80;;;;;;;24.79;45.70;100222.91;130235;1270;108711;-88
2022/06/23 10:31:06;;;;;;;3.30;1.80;;;;;;;24.86;45.44;100225.70;130285;1270;108782;-88
2022/06/23 10:34:30;;;;;;;2.00;1.80;;;;;;;24.95;45.12;100231.13;130252;1270;108895;-88
2022/06/23 10:37:56;;;;;;;2.10;1.80;;;;;;;25.01;45.00;100231.55;130164;1270;108700;-89
2022/06/23 10:41:16;;;;;;;4.00;1.90;;;;;;;24.92;43.88;100233.71;130211;1270;108926;-88
2022/06/23 10:44:39;;;;;;;2.10;1.90;;;;;;;24.62;43.83;100239.05;130235;1269;108812;-87
2022/06/23 10:48:19;;;;;;;2.70;2.40;;;;;;;24.40;43.83;100242.98;130239;1270;108649;-88
2022/06/23 10:51:49;;;;;;;1.70;1.60;;;;;;;24.23;44.57;100240.67;130230;1270;107664;-88
2022/06/23 10:55:22;;;;;;;3.70;1.90;;;;;;;24.42;45.04;100237.14;130280;1270;108717;-87
2022/06/23 10:59:01;;;;;;;3.10;2.00;;;;;;;24.67;44.16;100243.95;130171;1270;106877;-89
2022/06/23 11:02:38;;;;;;;2.50;1.70;;;;;;;24.72;44.10;100248.89;130308;1269;108862;-88
2022/06/23 11:06:11;;;;;;;2.40;1.90;;;;;;;24.61;43.53;100250.65;130249;1270;108752;-87
2022/06/23 11:09:41;;;;;;;2.70;1.80;;;;;;;24.50;43.25;100252.64;130233;1270;108808;-89
2022/06/23 11:13:03;;;;;;;2.40;1.90;;;;;;;24.47;43.46;100253.92;130276;1270;109571;-89
2022/06/23 11:16:19;;;;;;;2.80;2.20;;;;;;;24.76;43.54;100249.81;130255;1270;108812;-87
2022/06/23 11:19:42;;;;;;;3.60;2.20;;;;;;;25.00;42.64;100248.34;130214;1270;107725;-89
2022/06/23 11:22:54;;;;;;;2.50;1.80;;;;;;;25.19;42.76;100251.71;130216;1270;108704;-88
2022/06/23 11:26:09;;;;;;;2.80;2.00;;;;;;;25.43;42.29;100242.14;130312;1270;107675;-86
2022/06/23 11:29:32;;;;;;;3.60;2.00;;;;;;;25.61;41.99;100242.98;130267;1270;108790;-87
2022/06/23 11:32:58;;;;;;;3.40;2.30;;;;;;;25.48;42.46;100247.19;130222;1270;108672;-87
2022/06/23 11:36:15;;;;;;;2.40;2.00;;;;;;;25.28;42.97;100250.23;130261;1270;108747;-85
2022/06/23 11:39:46;;;;;;;2.30;2.00;;;;;;;25.14;43.08;100251.27;130246;1270;108859;-86
2022/06/23 11:43:11;;;;;;;2.00;1.80;;;;;;;25.06;43.21;100249.37;130236;1270;108949;-85
2022/06/23 11:46:27;;;;;;;3.40;2.00;;;;;;;25.17;42.90;100248.01;130194;1270;108886;-88
2022/06/23 11:49:43;;;;;;;3.30;1.80;;;;;;;25.31;42.41;100243.77;130252;1270;108766;-86
2022/06/23 11:53:08;;;;;;;2.50;1.90;;;;;;;25.55;42.73;100240.61;130256;1269;108842;-87
2022/06/23 11:56:28;;;;;;;2.40;1.80;;;;;;;25.85;42.28;100233.23;130268;1270;108853;-90
2022/06/23 11:59:44;;;;;;;3.30;2.20;;;;;;;26.14;42.30;100233.96;130239;1270;108896;-87
2022/06/23 12:03:02;;;;;;;2.20;1.90;;;;;;;26.19;41.47;100236.94;130275;1270;108772;-88
2022/06/23 12:06:21;;;;;;;3.00;2.10;;;;;;;26.06;40.39;100235.20;130278;1270;108884;-88
2022/06/23 12:09:31;;;;;;;2.00;1.70;;;;;;;26.01;41.43;100236.73;130241;1270;108942;-88
2022/06/23 12:12:37;;;;;;;3.10;2.00;;;;;;;25.86;41.35;100238.88;130219;1269;108928;-87
2022/06/23 12:15:46;;;;;;;4.40;2.40;;;;;;;25.80;41.39;100239.88;130213;1270;108433;-86
2022/06/23 12:18:58;;;;;;;2.40;1.70;;;;;;;25.78;41.33;100234.89;130170;1270;108695;-85
2022/06/23 12:22:09;;;;;;;2.90;1.80;;;;;;;25.80;40.74;100235.20;130225;1270;109020;-87
2022/06/23 12:25:24;;;;;;;2.10;1.80;;;;;;;25.85;40.96;100229.30;130227;1270;108643;-87
2022/06/23 12:28:38;;;;;;;1.90;1.70;;;;;;;25.94;40.38;100231.89;130235;1270;108730;-89
2022/06/23 12:31:48;;;;;;;2.20;1.60;;;;;;;26.06;41.10;100226.89;130222;1269;107701;-89
2022/06/23 12:35:02;;;;;;;2.40;1.80;;;;;;;26.18;40.76;100228.23;130205;1270;108695;-89
2022/06/23 12:38:11;;;;;;;2.60;1.90;;;;;;;26.09;40.30;100231.02;130304;1269;108883;-86
2022/06/23 12:41:23;;;;;;;2.30;1.70;;;;;;;25.93;40.68;100228.97;130274;1270;106892;-88
2022/06/23 12:44:39;;;;;;;2.80;1.70;;;;;;;25.82;40.79;100230.86;130278;1270;108759;-89
2022/06/23 12:47:59;;;;;;;1.70;1.60;;;;;;;25.81;40.36;100227.21;130228;1270;108569;-87
2022/06/23 12:51:13;;;;;;;2.50;1.70;;;;;;;25.86;40.49;100223.35;130232;1269;108944;-85
2022/06/23 12:54:48;;;;;;;2.20;1.80;;;;;;;26.13;40.17;100217.21;130235;1270;108835;-85
2022/06/23 12:58:24;;;;;;;2.50;1.90;;;;;;;26.41;40.01;100216.78;130209;1270;108710;-88
2022/06/23 13:01:40;;;;;;;1.90;1.70;;;;;;;26.48;38.58;100213.69;130153;1270;107722;-88
2022/06/23 13:04:52;;;;;;;2.30;1.90;;;;;;;26.49;39.78;100220.19;130177;1270;107444;-87
2022/06/23 13:08:05;;;;;;;3.10;1.80;;;;;;;26.37;39.71;100217.68;130272;1270;107749;-88
2022/06/23 13:11:18;;;;;;;2.20;1.60;;;;;;;26.22;39.75;100222.52;130253;1270;108872;-88
2022/06/23 13:14:34;;;;;;;2.60;1.80;;;;;;;26.08;40.08;100222.09;130255;1270;108714;-86
2022/06/23 13:17:47;;;;;;;2.70;1.80;;;;;;;26.09;40.10;100223.14;130290;1270;108680;-87
2022/06/23 13:20:59;;;;;;;2.10;1.50;;;;;;;26.16;40.08;100217.80;130220;1270;108871;-86
2022/06/23 13:24:09;;;;;;;2.30;1.80;;;;;;;26.32;40.05;100218.58;130225;1270;108199;-88
2022/06/23 13:27:19;;;;;;;2.40;1.70;;;;;;;26.49;39.24;100216.26;130098;1270;108538;-88
2022/06/23 13:30:28;;;;;;;2.50;1.80;;;;;;;26.50;39.71;100217.91;130207;1270;108928;-86
2022/06/23 13:33:39;;;;;;;3.00;1.80;;;;;;;26.62;39.63;100218.52;130227;1269;108716;-86
2022/06/23 13:36:51;;;;;;;3.00;1.90;;;;;;;26.65;39.55;100217.52;130203;1269;108824;-85
2022/06/23 13:40:02;;;;;;;2.80;1.70;;;;;;;26.42;39.66;100213.29;130241;1270;108836;-85
2022/06/23 13:43:13;;;;;;;3.40;1.70;;;;;;;26.18;39.96;100214.09;130223;1269;109679;-86
2022/06/23 13:46:28;;;;;;;3.10;1.90;;;;;;;26.02;40.03;100208.35;130221;1270;108805;-86
2022/06/23 13:49:41;;;;;;;2.10;1.50;;;;;;;25.99;40.00;100204.02;130190;1270;108854;-87
2022/06/23 13:52:52;;;;;;;3.40;1.80;;;;;;;25.95;39.18;100199.98;130264;1270;108844;-86
2022/06/23 13:56:06;;;;;;;2.20;1.70;;;;;;;25.78;39.33;100199.80;130253;1270;108905;-86
2022/06/23 13:59:15;;;;;;;3.00;1.60;;;;;;;25.75;39.66;100197.14;130284;1269;108928;-87
2022/06/23 14:02:30;;;;;;;3.00;1.60;;;;;;;25.79;39.63;100193.81;130262;1270;108826;-87
2022/06/23 14:05:40;;;;;;;3.30;1.80;;;;;;;25.80;39.42;100191.73;130214;1270;108632;-87
2022/06/23 14:08:52;;;;;;;2.10;1.50;;;;;;;25.71;39.53;100183.32;130287;1270;108561;-86
2022/06/23 14:12:09;;;;;;;2.10;1.90;;;;;;;25.59;39.63;100181.64;130205;1270;107569;-86
2022/06/23 14:15:21;;;;;;;1.80;1.70;;;;;;;25.41;39.06;100184.19;130189;1270;108858;-86
2022/06/23 14:18:40;;;;;;;2.30;1.70;;;;;;;25.24;39.51;100181.73;130225;1270;108734;-87
2022/06/23 14:21:51;;;;;;;5.00;2.00;;;;;;;25.08;39.91;100180.07;130259;1270;108799;-87
2022/06/23 14:25:05;;;;;;;2.00;1.80;;;;;;;25.01;39.77;100183.08;130214;1270;108740;-86
2022/06/23 14:28:21;;;;;;;1.90;1.70;;;;;;;24.97;39.33;100180.68;130184;1270;108648;-86
2022/06/23 14:31:38;;;;;;;2.70;2.00;;;;;;;24.98;39.82;100183.52;130236;1269;108923;-86
2022/06/23 14:34:47;;;;;;;2.40;2.20;;;;;;;25.06;39.79;100180.02;130262;1270;108896;-87
2022/06/23 14:37:58;;;;;;;2.10;1.90;;;;;;;25.13;39.28;100175.81;130303;1270;108898;-87
2022/06/23 14:41:14;;;;;;;;;;;;;;;25.21;40.09;100170.05;130276;1269;108879;-87
2022/06/23 14:44:39;;;;;;;3.10;1.80;;;;;;;25.33;39.90;100171.70;130313;1270;109155;-86
2022/06/23 14:48:06;;;;;;;3.20;1.90;;;;;;;25.39;39.90;100174.62;130188;1270;108877;-86
2022/06/23 14:51:17;;;;;;;2.60;1.70;;;;;;;25.46;40.06;100174.11;130243;1270;108808;-86
2022/06/23 14:54:27;;;;;;;2.50;1.80;;;;;;;25.54;39.64;100169.49;130247;1271;108786;-86
2022/06/23 14:57:44;;;;;;;2.40;1.70;;;;;;;25.51;39.48;100166.25;130276;1270;108818;-87